Time;durP1;ratioP1;P1;durP2;ratioP2;P2;SDS_P1;SDS_P2;PMS_P1;PMS_P2;Temp;Humidity;BMP_temperature;BMP_pressure;BME280_temperature;BME280_humidity;BME280_pressure;Samples;Min_cycle;Max_cycle;Signal;HPM_P1;HPM_P2
2021/12/03 00:00:22;;;;;;;1.88;0.55;;;17.20;35.20;;;;;;5114972;28;20479;-67
2021/12/03 00:02:49;;;;;;;2.03;0.60;;;17.20;35.40;;;;;;5116134;28;20111;-68
2021/12/03 00:05:17;;;;;;;1.77;0.63;;;17.10;35.40;;;;;;5116639;28;20072;-69
2021/12/03 00:07:43;;;;;;;1.67;0.52;;;17.10;35.40;;;;;;5115996;28;20062;-69
2021/12/03 00:10:12;;;;;;;1.60;0.93;;;17.10;35.60;;;;;;5116055;28;20044;-68
2021/12/03 00:12:38;;;;;;;3.13;0.55;;;17.00;35.60;;;;;;5114623;28;20118;-68
2021/12/03 00:15:07;;;;;;;1.30;0.40;;;17.00;35.70;;;;;;5115948;28;20074;-69
2021/12/03 00:17:33;;;;;;;1.95;0.70;;;17.00;35.80;;;;;;5114614;28;20490;-69
2021/12/03 00:19:59;;;;;;;1.02;0.50;;;16.90;35.80;;;;;;5114740;28;20050;-68
2021/12/03 00:22:25;;;;;;;1.95;0.65;;;16.90;35.80;;;;;;5115837;28;20046;-69
2021/12/03 00:24:51;;;;;;;1.35;0.50;;;16.90;35.90;;;;;;5114781;28;20044;-69
2021/12/03 00:27:16;;;;;;;1.20;0.55;;;16.80;36.80;;;;;;5115678;28;20038;-69
2021/12/03 00:29:42;;;;;;;2.25;0.73;;;16.80;36.10;;;;;;5113728;28;20551;-69
2021/12/03 00:32:11;;;;;;;2.78;0.50;;;16.80;36.10;;;;;;5113313;28;20075;-69
2021/12/03 00:34:37;;;;;;;1.77;0.50;;;16.70;36.20;;;;;;5113841;28;20608;-69
2021/12/03 00:37:03;;;;;;;1.75;0.73;;;16.70;36.20;;;;;;5115677;28;20118;-68
2021/12/03 00:39:28;;;;;;;2.78;0.52;;;16.70;36.20;;;;;;5114483;28;20116;-69
2021/12/03 00:41:59;;;;;;;3.40;0.50;;;16.70;36.20;;;;;;5114642;28;20047;-69
2021/12/03 00:44:26;;;;;;;2.10;0.60;;;16.70;36.20;;;;;;5114319;28;20032;-69
2021/12/03 00:46:52;;;;;;;3.03;0.68;;;16.70;36.20;;;;;;5115360;28;20075;-69
2021/12/03 00:49:18;;;;;;;1.63;0.90;;;16.70;36.30;;;;;;5113783;28;20501;-68
2021/12/03 00:51:44;;;;;;;1.95;0.60;;;16.60;36.20;;;;;;5114108;28;20046;-69
2021/12/03 00:54:10;;;;;;;1.63;0.70;;;16.60;36.20;;;;;;5113849;28;20391;-69
2021/12/03 00:56:39;;;;;;;1.73;0.65;;;16.60;36.30;;;;;;5115183;28;20134;-69
2021/12/03 00:59:05;;;;;;;1.38;0.40;;;16.70;36.60;;;;;;5115076;27;20372;-69
2021/12/03 01:01:30;;;;;;;2.10;0.60;;;16.60;36.40;;;;;;5113705;28;20046;-69
2021/12/03 01:03:56;;;;;;;1.35;0.45;;;16.60;36.40;;;;;;5113628;28;20078;-69
2021/12/03 01:06:22;;;;;;;1.90;0.80;;;16.60;36.40;;;;;;5113499;28;20050;-69
2021/12/03 01:08:51;;;;;;;2.08;0.77;;;16.60;36.40;;;;;;5114996;28;20386;-69
2021/12/03 01:11:17;;;;;;;2.97;0.60;;;16.60;36.40;;;;;;5113875;28;20505;-69
2021/12/03 01:13:44;;;;;;;2.20;0.50;;;16.60;36.40;;;;;;5114699;28;20036;-69
2021/12/03 01:16:12;;;;;;;2.13;0.75;;;16.60;36.40;;;;;;5113500;28;20082;-69
2021/12/03 01:18:40;;;;;;;2.33;0.70;;;16.60;36.40;;;;;;5114928;28;20391;-68
2021/12/03 01:21:06;;;;;;;1.30;0.80;;;16.50;36.50;;;;;;5115141;27;20051;-69
2021/12/03 01:23:32;;;;;;;1.23;0.60;;;16.50;36.40;;;;;;5113361;28;20047;-69
2021/12/03 01:25:58;;;;;;;1.70;0.95;;;16.50;36.50;;;;;;5113209;28;20054;-69
2021/12/03 01:28:26;;;;;;;1.63;0.60;;;16.50;36.50;;;;;;5113290;28;20047;-69
2021/12/03 01:30:53;;;;;;;1.35;0.73;;;16.50;36.50;;;;;;5114344;28;20483;-69
2021/12/03 01:33:19;;;;;;;1.88;0.75;;;16.50;36.50;;;;;;5114289;28;20050;-69
2021/12/03 01:35:45;;;;;;;1.80;0.70;;;16.50;36.50;;;;;;5113080;28;20040;-69
2021/12/03 01:38:10;;;;;;;1.42;0.63;;;16.50;36.50;;;;;;5113062;28;20627;-69
2021/12/03 01:40:37;;;;;;;1.85;0.70;;;16.50;36.50;;;;;;5112964;28;20118;-69
2021/12/03 01:43:04;;;;;;;1.60;0.70;;;16.50;36.50;;;;;;5112936;28;20044;-69
2021/12/03 01:45:33;;;;;;;1.73;0.60;;;16.40;36.50;;;;;;5112868;28;20051;-69
2021/12/03 01:48:00;;;;;;;2.90;0.75;;;16.40;36.50;;;;;;5114340;28;20055;-68
2021/12/03 01:50:29;;;;;;;2.28;1.10;;;16.40;36.50;;;;;;5112796;28;20394;-68
2021/12/03 01:52:58;;;;;;;1.83;0.77;;;16.40;36.50;;;;;;5112945;28;20066;-69
2021/12/03 01:55:24;;;;;;;3.05;0.90;;;16.40;36.50;;;;;;5113160;28;20039;-69
2021/12/03 01:57:50;;;;;;;1.70;0.80;;;16.40;36.60;;;;;;5112996;28;20050;-69
2021/12/03 02:00:22;;;;;;;2.20;0.60;;;16.40;36.60;;;;;;5113830;28;20096;-68
2021/12/03 02:02:48;;;;;;;3.15;0.77;;;16.30;36.60;;;;;;5112797;28;20495;-69
2021/12/03 02:05:17;;;;;;;1.85;1.10;;;16.30;36.70;;;;;;5112498;28;20057;-68
2021/12/03 02:07:44;;;;;;;2.85;0.70;;;16.30;36.70;;;;;;5113962;28;20227;-69
2021/12/03 02:10:13;;;;;;;3.05;1.08;;;16.30;36.70;;;;;;5112644;28;20054;-69
2021/12/03 02:12:42;;;;;;;2.13;0.80;;;16.30;36.70;;;;;;5113686;28;20150;-69
2021/12/03 02:15:08;;;;;;;2.45;0.90;;;16.30;36.70;;;;;;5112335;28;20043;-68
2021/12/03 02:17:34;;;;;;;2.17;0.90;;;16.30;36.80;;;;;;5111377;28;20047;-69
2021/12/03 02:20:00;;;;;;;2.63;0.98;;;16.30;36.80;;;;;;5113693;28;20054;-68
2021/12/03 02:22:26;;;;;;;2.55;1.08;;;16.30;36.70;;;;;;5112202;28;20448;-70
2021/12/03 02:24:52;;;;;;;2.42;0.80;;;16.30;36.80;;;;;;5113394;28;20040;-69
2021/12/03 02:27:20;;;;;;;1.67;0.80;;;16.30;36.70;;;;;;5112281;28;20165;-68
2021/12/03 02:29:46;;;;;;;1.98;1.15;;;16.60;36.30;;;;;;5112098;28;20027;-69
2021/12/03 02:32:12;;;;;;;1.00;0.50;;;17.00;35.80;;;;;;5111838;28;20169;-69
2021/12/03 02:34:37;;;;;;;1.15;0.40;;;17.50;35.40;;;;;;5112012;28;20058;-69
2021/12/03 02:37:05;;;;;;;1.20;0.50;;;18.20;34.60;;;;;;5112061;28;20043;-69
2021/12/03 02:39:31;;;;;;;2.17;0.55;;;19.20;33.50;;;;;;5113196;27;20075;-68
2021/12/03 02:41:56;;;;;;;1.65;0.43;;;20.20;32.00;;;;;;5112102;28;20086;-68
2021/12/03 02:44:22;;;;;;;2.33;0.40;;;21.00;30.80;;;;;;5113024;28;20475;-69
2021/12/03 02:46:48;;;;;;;1.25;0.40;;;21.70;30.00;;;;;;5111917;28;20035;-69
2021/12/03 02:49:15;;;;;;;1.85;0.60;;;22.20;29.40;;;;;;5111700;28;20487;-69
2021/12/03 02:51:42;;;;;;;1.58;0.45;;;22.60;28.90;;;;;;5111977;28;20032;-69
2021/12/03 02:54:08;;;;;;;1.92;0.65;;;23.00;28.50;;;;;;5111590;28;20050;-69
2021/12/03 02:56:34;;;;;;;2.13;0.52;;;23.20;28.20;;;;;;5112902;28;20063;-70
2021/12/03 02:59:00;;;;;;;2.75;0.68;;;23.40;28.00;;;;;;5112740;28;20071;-70
2021/12/03 03:01:26;;;;;;;1.30;0.50;;;23.60;27.80;;;;;;5111470;28;20050;-70
2021/12/03 03:03:51;;;;;;;1.27;0.47;;;23.70;27.70;;;;;;5111449;28;20495;-69
2021/12/03 03:06:17;;;;;;;1.50;0.40;;;23.70;27.60;;;;;;5111657;28;20121;-69
2021/12/03 03:08:44;;;;;;;1.75;0.45;;;23.70;27.60;;;;;;5111564;28;20285;-69
2021/12/03 03:11:11;;;;;;;1.92;0.47;;;23.50;27.60;;;;;;5111422;28;20047;-68
2021/12/03 03:13:37;;;;;;;1.08;0.50;;;23.40;28.30;;;;;;5112361;28;20135;-69
2021/12/03 03:16:04;;;;;;;1.48;0.40;;;23.10;27.80;;;;;;5111303;28;20044;-69
2021/12/03 03:18:30;;;;;;;1.63;0.40;;;22.80;28.10;;;;;;5111524;28;20037;-69
2021/12/03 03:20:59;;;;;;;1.08;0.30;;;22.50;28.40;;;;;;5112656;28;20074;-68
2021/12/03 03:23:25;;;;;;;1.95;0.52;;;22.20;28.70;;;;;;5112448;28;20045;-69
2021/12/03 03:25:51;;;;;;;0.95;0.28;;;21.90;28.90;;;;;;5112443;28;20035;-68
2021/12/03 03:28:19;;;;;;;2.97;0.60;;;21.70;29.20;;;;;;5110833;28;20122;-69
2021/12/03 03:30:46;;;;;;;1.85;0.50;;;21.50;29.40;;;;;;5112624;28;20039;-69
2021/12/03 03:33:14;;;;;;;1.30;0.43;;;21.30;29.60;;;;;;5111104;28;20390;-69
2021/12/03 03:35:42;;;;;;;1.52;0.30;;;21.10;29.80;;;;;;5111183;28;20099;-69
2021/12/03 03:38:08;;;;;;;1.95;0.43;;;20.90;29.90;;;;;;5112214;28;20391;-69
2021/12/03 03:40:35;;;;;;;1.65;0.60;;;20.80;30.00;;;;;;5112317;28;20032;-68
2021/12/03 03:43:02;;;;;;;1.10;0.30;;;20.60;30.20;;;;;;5111206;28;20498;-68
2021/12/03 03:45:30;;;;;;;1.23;0.30;;;20.60;30.20;;;;;;5112676;28;20039;-69
2021/12/03 03:47:56;;;;;;;1.23;0.30;;;20.50;30.20;;;;;;5111245;28;20524;-69
2021/12/03 03:50:26;;;;;;;1.70;0.30;;;20.30;30.40;;;;;;5110422;28;20502;-69
2021/12/03 03:52:54;;;;;;;2.70;0.40;;;20.30;30.70;;;;;;5110699;28;20043;-68
2021/12/03 03:55:20;;;;;;;1.08;0.30;;;20.20;30.70;;;;;;5110871;28;20104;-69
2021/12/03 03:57:47;;;;;;;4.28;0.52;;;20.20;30.70;;;;;;5112143;28;20077;-68
2021/12/03 04:00:17;;;;;;;1.42;0.75;;;20.40;30.60;;;;;;5110812;28;20040;-69
2021/12/03 04:02:44;;;;;;;1.77;0.40;;;20.70;30.40;;;;;;5111081;28;20065;-70
2021/12/03 04:05:11;;;;;;;1.55;0.30;;;21.00;30.00;;;;;;5110949;28;20058;-69
2021/12/03 04:07:40;;;;;;;1.13;0.43;;;21.30;29.80;;;;;;5112045;28;20047;-69
2021/12/03 04:10:07;;;;;;;2.08;0.30;;;21.40;29.60;;;;;;5110672;28;20093;-68
2021/12/03 04:12:33;;;;;;;1.13;0.30;;;21.60;29.40;;;;;;5111881;28;20433;-69
2021/12/03 04:14:59;;;;;;;1.48;0.30;;;21.80;29.30;;;;;;5111996;28;20035;-68
2021/12/03 04:17:25;;;;;;;1.67;0.20;;;21.80;29.10;;;;;;5110702;28;20451;-69
2021/12/03 04:19:50;;;;;;;1.48;0.40;;;21.80;29.10;;;;;;5110845;28;20039;-69
2021/12/03 04:22:18;;;;;;;1.10;0.30;;;21.70;29.10;;;;;;5110825;28;20456;-69
2021/12/03 04:24:44;;;;;;;1.10;0.82;;;21.60;29.20;;;;;;5111864;28;20043;-69
2021/12/03 04:27:10;;;;;;;1.23;0.30;;;21.50;29.30;;;;;;5110764;28;20036;-69
2021/12/03 04:29:36;;;;;;;1.30;0.40;;;21.30;29.50;;;;;;5112190;28;20386;-68
2021/12/03 04:32:02;;;;;;;1.48;0.40;;;21.20;29.60;;;;;;5110735;28;20043;-68
2021/12/03 04:34:28;;;;;;;2.50;0.57;;;21.00;29.70;;;;;;5110304;28;20059;-69
2021/12/03 04:36:53;;;;;;;1.00;0.30;;;20.90;29.80;;;;;;5111728;28;20039;-68
2021/12/03 04:39:19;;;;;;;1.63;0.70;;;20.80;29.90;;;;;;5110516;27;20039;-69
2021/12/03 04:41:45;;;;;;;1.83;0.40;;;20.70;30.00;;;;;;5114368;28;20047;-68
2021/12/03 04:44:11;;;;;;;1.27;0.50;;;20.60;30.80;;;;;;5114361;28;20058;-68
2021/12/03 04:46:36;;;;;;;1.48;0.40;;;20.50;30.20;;;;;;5115267;28;20386;-67
2021/12/03 04:49:02;;;;;;;1.65;0.40;;;20.40;30.30;;;;;;5114123;28;20390;-68
2021/12/03 04:51:28;;;;;;;2.00;0.35;;;20.40;30.40;;;;;;5115246;28;20039;-69
2021/12/03 04:53:54;;;;;;;1.25;0.38;;;20.30;30.50;;;;;;5115234;28;20048;-68
2021/12/03 04:56:19;;;;;;;0.98;0.57;;;20.20;30.50;;;;;;5113874;28;20031;-68
2021/12/03 04:58:45;;;;;;;1.63;0.82;;;20.30;30.60;;;;;;5113812;28;20039;-67
2021/12/03 05:01:11;;;;;;;1.52;0.40;;;20.30;30.60;;;;;;5115236;28;20040;-67
2021/12/03 05:03:37;;;;;;;1.23;0.52;;;20.40;30.60;;;;;;5114103;28;20043;-67
2021/12/03 05:06:07;;;;;;;1.35;0.30;;;20.60;30.40;;;;;;5114918;28;20036;-67
2021/12/03 05:08:34;;;;;;;1.13;0.30;;;20.60;30.20;;;;;;5113725;28;20437;-67
2021/12/03 05:11:03;;;;;;;0.80;0.20;;;20.70;30.20;;;;;;5113520;28;20553;-68
2021/12/03 05:13:31;;;;;;;1.33;0.22;;;20.80;30.10;;;;;;5113433;28;20089;-67
2021/12/03 05:15:57;;;;;;;1.75;0.40;;;20.90;30.00;;;;;;5113555;28;20505;-67
2021/12/03 05:18:27;;;;;;;1.00;0.20;;;21.10;29.80;;;;;;5114859;28;20031;-68
2021/12/03 05:20:54;;;;;;;1.33;0.30;;;21.20;29.70;;;;;;5113775;28;20046;-68
2021/12/03 05:23:21;;;;;;;1.15;0.30;;;21.30;29.60;;;;;;5113581;28;20054;-68
2021/12/03 05:25:47;;;;;;;1.63;0.60;;;21.30;29.60;;;;;;5114590;28;20043;-69
2021/12/03 05:28:17;;;;;;;0.95;0.30;;;21.20;29.60;;;;;;5114441;28;20035;-68
2021/12/03 05:30:43;;;;;;;1.05;0.30;;;21.20;29.60;;;;;;5113616;28;20039;-67
2021/12/03 05:33:09;;;;;;;1.85;0.45;;;21.30;29.60;;;;;;5114313;28;20079;-68
2021/12/03 05:35:35;;;;;;;2.95;0.50;;;21.30;29.60;;;;;;5113006;28;20136;-67
2021/12/03 05:38:01;;;;;;;0.90;0.30;;;21.20;29.60;;;;;;5114238;28;20043;-68
2021/12/03 05:40:27;;;;;;;2.25;0.43;;;21.10;29.60;;;;;;5113125;28;20039;-67
2021/12/03 05:42:53;;;;;;;1.58;0.43;;;21.10;29.70;;;;;;5113176;28;20054;-68
2021/12/03 05:45:22;;;;;;;1.17;0.30;;;21.00;29.70;;;;;;5114243;28;20040;-67
2021/12/03 05:47:49;;;;;;;2.05;0.50;;;21.00;29.80;;;;;;5114179;28;20447;-68
2021/12/03 05:50:15;;;;;;;2.45;0.65;;;20.90;29.90;;;;;;5112834;28;20092;-68
2021/12/03 05:52:44;;;;;;;0.90;0.30;;;20.80;30.00;;;;;;5112747;28;20116;-68
2021/12/03 05:55:12;;;;;;;0.77;0.30;;;20.80;30.00;;;;;;5114046;28;20119;-67
2021/12/03 05:57:39;;;;;;;1.02;0.40;;;20.70;30.00;;;;;;5113890;28;20088;-67
2021/12/03 06:00:08;;;;;;;1.40;0.20;;;20.70;30.00;;;;;;5112675;28;20085;-67
2021/12/03 06:02:36;;;;;;;0.98;0.30;;;20.70;30.10;;;;;;5112799;28;20054;-68
2021/12/03 06:05:02;;;;;;;2.70;0.38;;;20.70;30.00;;;;;;5113893;28;20035;-67
2021/12/03 06:07:28;;;;;;;2.10;0.30;;;20.70;30.10;;;;;;5112754;28;20040;-67
2021/12/03 06:09:54;;;;;;;1.75;0.40;;;20.60;30.10;;;;;;5112703;28;20125;-67
2021/12/03 06:12:22;;;;;;;2.47;0.20;;;20.60;30.20;;;;;;5112281;28;20452;-67
2021/12/03 06:14:48;;;;;;;0.98;0.38;;;20.60;30.20;;;;;;5113798;28;20027;-68
2021/12/03 06:17:15;;;;;;;0.90;0.30;;;20.60;30.20;;;;;;5112390;28;20375;-67
2021/12/03 06:19:42;;;;;;;1.65;0.40;;;20.50;30.20;;;;;;5113640;28;20043;-68
2021/12/03 06:22:09;;;;;;;1.33;0.43;;;20.50;30.20;;;;;;5112542;28;20577;-69
2021/12/03 06:24:37;;;;;;;1.85;0.20;;;20.50;30.40;;;;;;5112444;28;20051;-67
2021/12/03 06:27:03;;;;;;;1.40;0.38;;;20.50;30.50;;;;;;5112047;28;20491;-68
2021/12/03 06:29:29;;;;;;;1.00;0.55;;;20.60;30.40;;;;;;5112106;28;20161;-68
2021/12/03 06:31:55;;;;;;;1.65;0.30;;;20.60;30.30;;;;;;5111009;28;20115;-68
2021/12/03 06:34:21;;;;;;;1.70;0.30;;;20.60;30.20;;;;;;5110398;28;20062;-68
2021/12/03 06:36:46;;;;;;;4.43;0.55;;;20.60;31.00;;;;;;5111558;28;20402;-68
2021/12/03 06:39:12;;;;;;;1.48;0.40;;;20.50;31.70;;;;;;5108195;28;20039;-71
2021/12/03 06:41:38;;;;;;;1.60;0.30;;;20.50;32.30;;;;;;5109865;28;20509;-66
2021/12/03 06:44:05;;;;;;;1.23;0.38;;;20.40;32.50;;;;;;5111011;28;20459;-67
2021/12/03 06:46:32;;;;;;;2.05;0.50;;;20.50;33.00;;;;;;5105379;28;20028;-65
2021/12/03 06:48:58;;;;;;;2.03;0.70;;;20.50;32.90;;;;;;5109120;28;20039;-66
2021/12/03 06:51:39;;;;;;;6.40;0.68;;;20.40;33.00;;;;;;5109267;28;20031;-65
2021/12/03 06:54:06;;;;;;;3.40;0.50;;;20.40;33.70;;;;;;5107755;28;20043;-65
2021/12/03 06:56:43;;;;;;;1.48;0.50;;;20.40;33.70;;;;;;5105464;28;20548;-65
2021/12/03 06:59:10;;;;;;;2.55;0.50;;;20.40;33.80;;;;;;5106126;28;20032;-66
2021/12/03 07:01:35;;;;;;;4.22;0.57;;;20.40;33.80;;;;;;5105030;28;20635;-66
2021/12/03 07:04:01;;;;;;;6.40;0.40;;;20.40;33.80;;;;;;5104668;28;20119;-65
2021/12/03 07:06:27;;;;;;;1.50;0.40;;;20.40;34.00;;;;;;5105708;28;20122;-66
2021/12/03 07:08:52;;;;;;;1.67;0.30;;;20.40;34.10;;;;;;5101309;28;20047;-65
2021/12/03 07:11:18;;;;;;;2.03;0.30;;;20.50;34.10;;;;;;5102446;28;20046;-66
2021/12/03 07:13:44;;;;;;;1.40;0.30;;;20.50;34.10;;;;;;5097159;28;20035;-64
2021/12/03 07:16:10;;;;;;;1.15;0.30;;;20.40;34.30;;;;;;5098976;28;20054;-70
2021/12/03 07:18:35;;;;;;;1.00;0.40;;;20.40;34.30;;;;;;5100545;28;20074;-70
2021/12/03 07:21:01;;;;;;;1.00;0.45;;;20.40;34.10;;;;;;5101302;28;20066;-66
2021/12/03 07:23:27;;;;;;;1.35;0.40;;;20.40;34.10;;;;;;5100939;28;20075;-66
2021/12/03 07:25:53;;;;;;;2.53;0.38;;;20.40;34.20;;;;;;5073585;28;21457;-67
2021/12/03 07:28:20;;;;;;;1.90;0.30;;;20.40;34.30;;;;;;5084966;28;20051;-67
2021/12/03 07:30:45;;;;;;;2.50;1.20;;;20.50;34.60;;;;;;5090769;28;20053;-66
2021/12/03 07:33:14;;;;;;;3.05;1.58;;;20.70;34.20;;;;;;5106544;28;20542;-67
2021/12/03 07:35:40;;;;;;;4.53;2.42;;;20.60;34.30;;;;;;5088922;28;20060;-67
2021/12/03 07:38:05;;;;;;;2.95;1.77;;;20.60;33.30;;;;;;5086251;28;20743;-67
2021/12/03 07:40:31;;;;;;;2.83;2.20;;;20.50;33.10;;;;;;5091482;28;20044;-67
2021/12/03 07:42:57;;;;;;;3.22;2.10;;;20.50;32.80;;;;;;5093485;28;20471;-68
2021/12/03 07:45:22;;;;;;;3.97;2.30;;;20.60;32.60;;;;;;5092102;28;20043;-67
2021/12/03 07:47:48;;;;;;;4.93;2.22;;;20.90;32.20;;;;;;5087599;28;20104;-67
2021/12/03 07:50:17;;;;;;;7.45;1.80;;;21.20;31.60;;;;;;5102233;28;20040;-68
2021/12/03 07:52:42;;;;;;;2.25;1.05;;;21.90;32.00;;;;;;5096366;28;20052;-66
2021/12/03 07:55:08;;;;;;;3.67;0.77;;;22.50;30.70;;;;;;5094149;28;20032;-68
2021/12/03 07:57:34;;;;;;;4.97;0.77;;;23.10;30.70;;;;;;5092895;28;20035;-66
2021/12/03 08:00:00;;;;;;;1.77;0.50;;;23.40;30.60;;;;;;5095356;28;20514;-66
2021/12/03 08:02:27;;;;;;;3.28;0.60;;;23.70;30.30;;;;;;5108894;28;20658;-67
2021/12/03 08:04:53;;;;;;;6.15;1.08;;;23.90;30.40;;;;;;5094046;28;20048;-66
2021/12/03 08:07:19;;;;;;;2.47;0.90;;;23.90;30.50;;;;;;5098542;28;20039;-67
2021/12/03 08:09:45;;;;;;;1.65;0.70;;;23.70;30.70;;;;;;5089781;28;20051;-67
2021/12/03 08:12:13;;;;;;;2.97;0.80;;;23.30;31.20;;;;;;5092702;28;20047;-66
2021/12/03 08:14:39;;;;;;;4.45;1.65;;;23.00;31.80;;;;;;5087817;28;20044;-66
2021/12/03 08:17:05;;;;;;;5.85;1.02;;;22.60;32.10;;;;;;5098835;27;20039;-66
2021/12/03 08:19:30;;;;;;;3.88;0.90;;;22.40;32.60;;;;;;5093951;28;20122;-67
2021/12/03 08:21:56;;;;;;;7.50;1.08;;;22.10;32.80;;;;;;5097754;27;20036;-68
2021/12/03 08:24:22;;;;;;;5.30;1.77;;;21.90;33.00;;;;;;5110575;27;20031;-68
2021/12/03 08:26:47;;;;;;;5.85;2.20;;;21.60;33.00;;;;;;5097097;28;20046;-67
2021/12/03 08:29:13;;;;;;;5.57;2.45;;;21.30;33.30;;;;;;5091696;28;20122;-65
2021/12/03 08:31:42;;;;;;;6.82;2.42;;;21.00;34.20;;;;;;5098402;28;20043;-67
2021/12/03 08:34:08;;;;;;;5.88;2.00;;;20.60;35.10;;;;;;5097483;27;20074;-67
2021/12/03 08:36:34;;;;;;;6.55;2.50;;;20.30;35.90;;;;;;5099382;28;20056;-67
2021/12/03 08:39:00;;;;;;;4.45;2.38;;;20.00;36.30;;;;;;5091785;27;20093;-67
2021/12/03 08:41:26;;;;;;;5.55;2.58;;;19.70;36.70;;;;;;5105169;27;20395;-66
2021/12/03 08:43:52;;;;;;;8.27;2.88;;;19.60;37.30;;;;;;5093846;28;20070;-66
2021/12/03 08:46:26;;;;;;;3.95;2.65;;;19.40;37.70;;;;;;5091595;27;20043;-79
2021/12/03 08:48:52;;;;;;;5.22;2.92;;;19.20;38.10;;;;;;5090659;28;20494;-67
2021/12/03 08:56:44;;;;;;;5.38;3.10;;;19.30;37.50;;;;;;5103161;28;20050;-67
2021/12/03 08:59:09;;;;;;;6.07;3.65;;;19.50;37.10;;;;;;5103104;28;20067;-68
2021/12/03 09:01:35;;;;;;;6.72;3.67;;;19.70;36.50;;;;;;5110269;27;20060;-67
2021/12/03 09:04:01;;;;;;;7.90;3.35;;;19.80;36.20;;;;;;5105655;28;20058;-67
2021/12/03 09:06:27;;;;;;;4.32;2.80;;;20.00;35.80;;;;;;5103605;27;20410;-66
2021/12/03 09:08:53;;;;;;;6.68;3.15;;;20.10;35.50;;;;;;5110990;27;20043;-71
2021/12/03 09:11:18;;;;;;;7.75;2.83;;;20.40;35.40;;;;;;5104312;27;20035;-69
2021/12/03 09:13:46;;;;;;;4.72;2.80;;;20.40;35.80;;;;;;5106814;27;20506;-67
2021/12/03 09:16:16;;;;;;;5.45;2.85;;;20.50;35.80;;;;;;5107565;27;20075;-68
2021/12/03 09:18:44;;;;;;;9.02;4.65;;;20.50;35.70;;;;;;5104347;28;20494;-68
2021/12/03 09:26:44;;;;;;;6.32;4.20;;;21.10;34.70;;;;;;5078938;27;20457;-68
2021/12/03 09:29:13;;;;;;;11.07;4.72;;;21.30;34.30;;;;;;5052721;28;20125;-67
2021/12/03 09:31:43;;;;;;;9.52;6.18;;;21.50;33.90;;;;;;5052217;28;20049;-66
2021/12/03 09:34:11;;;;;;;9.48;5.78;;;21.50;33.30;;;;;;5056663;28;20885;-64
2021/12/03 09:36:41;;;;;;;9.82;5.20;;;21.40;33.10;;;;;;5090875;28;20056;-68
2021/12/03 09:39:09;;;;;;;11.35;4.90;;;21.30;33.20;;;;;;5075981;28;20040;-67
2021/12/03 09:41:35;;;;;;;8.30;4.53;;;21.20;33.20;;;;;;5058282;28;20047;-67
2021/12/03 09:44:02;;;;;;;8.90;4.32;;;21.30;33.50;;;;;;5088638;28;20048;-66
2021/12/03 09:46:30;;;;;;;7.88;3.60;;;21.50;33.50;;;;;;5055171;28;20036;-66
2021/12/03 09:54:36;;;;;;;7.00;3.60;;;21.30;33.20;;;;;;5067265;28;20397;-65
2021/12/03 09:57:13;;;;;;;6.35;3.47;;;21.20;33.30;;;;;;5071144;28;20060;-65
2021/12/03 10:02:40;;;;;;;7.75;3.22;;;21.10;33.40;;;;;;5056172;28;20136;-65
2021/12/03 10:19:00;;;;;;;7.32;3.25;;;20.80;34.70;;;;;;5067627;27;20381;-64
2021/12/03 10:24:43;;;;;;;5.45;2.78;;;20.70;34.70;;;;;;5048430;28;20047;-66
2021/12/03 10:52:35;;;;;;;3.78;2.30;;;20.60;35.00;;;;;;5105313;27;1175665;-64
2021/12/03 10:55:46;;;;;;;5.85;2.00;;;20.50;34.90;;;;;;5116807;27;20048;-64
2021/12/03 11:37:34;;;;;;;5.75;1.23;;;21.10;32.80;;;;;;5126284;27;1155934;-64
2021/12/03 11:43:15;;;;;;;5.28;1.00;;;21.20;32.80;;;;;;5062041;27;20491;-63
2021/12/03 11:57:58;;;;;;;3.72;1.80;;;21.10;32.60;;;;;;5110333;27;20424;-68
2021/12/03 12:01:17;;;;;;;4.65;1.50;;;21.10;32.60;;;;;;5108994;28;20062;-68
2021/12/03 12:12:44;;;;;;;4.38;0.93;;;20.70;33.10;;;;;;5102425;27;20437;-65
2021/12/03 12:18:22;;;;;;;7.10;0.75;;;20.80;33.40;;;;;;5104682;28;20055;-66
2021/12/03 12:20:23;;;;;;;4.03;0.68;;;20.80;33.50;;;;;;5098573;28;20478;-66
2021/12/03 12:23:48;;;;;;;4.38;0.90;;;20.80;33.70;;;;;;5091541;28;20071;-65
2021/12/03 12:33:19;;;;;;;2.75;0.60;;;21.00;33.60;;;;;;5114074;27;20055;-65
2021/12/03 13:15:22;;;;;;;5.40;0.40;;;20.50;34.40;;;;;;5112651;27;1174123;-65
2021/12/03 13:25:37;;;;;;;1.70;0.40;;;20.80;34.10;;;;;;5106834;27;20419;-67
2021/12/03 13:35:13;;;;;;;2.08;0.60;;;20.90;33.60;;;;;;5067251;28;20638;-65
2021/12/03 13:56:28;;;;;;;2.90;0.57;;;20.80;33.40;;;;;;5039036;28;20052;-67
2021/12/03 14:51:26;;;;;;;5.20;0.55;;;20.70;33.20;;;;;;5150123;27;20074;-66
2021/12/03 15:00:18;;;;;;;2.03;0.40;;;20.60;33.40;;;;;;5128619;27;20395;-66
2021/12/03 15:31:18;;;;;;;2.13;0.60;;;20.20;33.90;;;;;;5143611;27;1153466;-65
2021/12/03 15:33:51;;;;;;;1.60;0.60;;;20.00;34.10;;;;;;5170388;27;20121;-66
2021/12/03 15:36:28;;;;;;;1.33;0.40;;;20.00;34.30;;;;;;5170103;27;20192;-65
2021/12/03 15:39:08;;;;;;;1.50;0.50;;;19.90;34.40;;;;;;5147050;27;20607;-65
2021/12/03 15:51:49;;;;;;;3.72;1.20;;;19.90;35.30;;;;;;5152282;27;20043;-65
2021/12/03 15:53:12;;;;;;;1.95;0.50;;;19.50;35.10;;;;;;5151595;27;20517;-65
2021/12/03 15:58:20;;;;;;;3.45;0.68;;;19.30;35.60;;;;;;5150614;27;20041;-66
2021/12/03 16:03:42;;;;;;;1.40;0.55;;;19.20;35.90;;;;;;5151317;27;20125;-65
2021/12/03 16:06:46;;;;;;;2.65;0.73;;;19.10;36.10;;;;;;5151541;27;20107;-65
2021/12/03 16:08:58;;;;;;;2.17;0.60;;;19.00;36.20;;;;;;5166955;27;20082;-66
2021/12/03 16:11:38;;;;;;;2.45;0.40;;;19.00;36.40;;;;;;5131460;27;20391;-66
2021/12/03 16:22:30;;;;;;;1.45;0.40;;;18.90;36.40;;;;;;5156507;27;1170128;-66
2021/12/03 16:44:36;;;;;;;1.20;0.40;;;18.60;37.00;;;;;;5152308;27;20106;-66
2021/12/03 16:47:14;;;;;;;1.70;0.60;;;18.60;37.10;;;;;;5171197;27;20034;-66
2021/12/03 16:52:31;;;;;;;1.52;0.70;;;18.50;37.30;;;;;;5152263;27;20474;-66
2021/12/03 16:54:57;;;;;;;;;;;18.50;37.30;;;;;;5171577;27;20413;-66
2021/12/03 16:57:30;;;;;;;2.03;0.30;;;18.40;37.30;;;;;;5152678;27;20048;-66
2021/12/03 16:59:57;;;;;;;1.13;0.40;;;18.40;37.50;;;;;;5152596;27;20046;-66
2021/12/03 17:02:33;;;;;;;0.82;0.30;;;18.40;37.60;;;;;;5152537;27;20043;-65
2021/12/03 17:10:35;;;;;;;1.27;0.40;;;18.30;37.80;;;;;;5130223;27;20440;-66
2021/12/03 17:13:40;;;;;;;1.00;0.40;;;18.20;38.60;;;;;;5129140;28;20383;-66
2021/12/03 17:22:16;;;;;;;1.65;0.40;;;18.10;38.10;;;;;;5130109;27;20358;-66
2021/12/03 17:57:06;;;;;;;0.80;0.47;;;17.60;39.50;;;;;;5150937;27;1220867;-66
2021/12/03 17:59:38;;;;;;;1.20;0.50;;;17.60;39.70;;;;;;5153098;27;20046;-65
2021/12/03 18:46:13;;;;;;;0.98;0.68;;;17.20;41.20;;;;;;5089493;28;20413;-66
2021/12/03 18:54:14;;;;;;;2.63;0.90;;;17.10;41.40;;;;;;5130232;27;20353;-66
2021/12/03 18:56:45;;;;;;;1.20;0.68;;;17.10;41.50;;;;;;5129171;28;20071;-66
2021/12/03 18:59:10;;;;;;;;;;;17.00;41.60;;;;;;5129589;28;20092;-66
2021/12/03 19:01:37;;;;;;;2.05;0.70;;;17.00;41.60;;;;;;5129103;28;20377;-66
2021/12/03 19:06:58;;;;;;;1.05;0.88;;;17.00;41.80;;;;;;5129919;28;20524;-65
2021/12/03 19:09:26;;;;;;;2.03;0.88;;;16.90;42.00;;;;;;5129915;27;20475;-66
2021/12/03 19:12:03;;;;;;;1.27;0.90;;;16.80;42.20;;;;;;5130299;27;20046;-65
2021/12/03 19:14:34;;;;;;;0.90;0.77;;;16.80;42.20;;;;;;5128448;28;20039;-66
2021/12/03 19:17:00;;;;;;;1.05;0.65;;;16.80;42.30;;;;;;5128593;27;20031;-66
2021/12/03 19:19:28;;;;;;;1.67;0.95;;;16.80;42.30;;;;;;5128662;28;20042;-66
2021/12/03 19:21:57;;;;;;;1.80;1.02;;;16.80;42.40;;;;;;5128756;28;20040;-66
2021/12/03 19:24:25;;;;;;;1.05;0.77;;;16.70;42.30;;;;;;5129797;27;20035;-66
2021/12/03 19:26:51;;;;;;;1.40;0.88;;;16.70;42.40;;;;;;5129616;27;20096;-66
2021/12/03 19:29:20;;;;;;;0.80;0.57;;;16.70;42.50;;;;;;5128285;28;20035;-66
2021/12/03 19:31:48;;;;;;;1.50;0.90;;;16.70;42.60;;;;;;5128342;28;20080;-66
2021/12/03 19:34:14;;;;;;;0.95;0.68;;;16.70;42.60;;;;;;5129482;27;20035;-66
2021/12/03 19:36:44;;;;;;;1.73;1.10;;;16.70;42.70;;;;;;5129405;27;20038;-66
2021/12/03 19:39:12;;;;;;;2.03;0.70;;;16.70;42.70;;;;;;5129529;27;20035;-66
2021/12/03 19:41:45;;;;;;;1.23;0.88;;;16.60;42.70;;;;;;5129449;27;20046;-66
2021/12/03 19:44:14;;;;;;;1.00;0.80;;;16.70;42.80;;;;;;5129406;27;20039;-66
2021/12/03 19:46:45;;;;;;;1.35;0.60;;;16.60;42.70;;;;;;5129228;27;20092;-66
2021/12/03 19:51:59;;;;;;;1.52;0.85;;;16.70;42.80;;;;;;5147698;27;1308444;-66
2021/12/03 19:54:25;;;;;;;0.93;0.82;;;16.70;42.80;;;;;;5153107;27;20094;-66
2021/12/03 19:56:51;;;;;;;0.82;0.50;;;16.60;42.80;;;;;;5153013;27;20039;-66
2021/12/03 19:59:18;;;;;;;1.00;0.80;;;16.60;42.90;;;;;;5153268;27;20393;-66
2021/12/03 20:01:47;;;;;;;0.93;0.60;;;16.60;42.90;;;;;;5152736;27;20049;-66
2021/12/03 20:04:14;;;;;;;0.88;0.60;;;16.60;42.90;;;;;;5152931;27;20071;-66
2021/12/03 20:06:43;;;;;;;1.05;0.60;;;16.70;43.10;;;;;;5153155;27;20398;-66
2021/12/03 20:09:16;;;;;;;1.92;0.70;;;16.70;43.00;;;;;;5153067;27;20079;-66
2021/12/03 20:11:47;;;;;;;1.20;0.73;;;16.60;43.00;;;;;;5171373;27;20419;-66